createdAt,value
2022-08-16T00:02:25.483Z,19.30
2022-08-16T00:04:54.333Z,19.30
2022-08-16T00:07:28.992Z,19.30
2022-08-16T00:09:58.865Z,19.20
2022-08-16T00:12:30.684Z,19.20
2022-08-16T00:15:02.486Z,19.20
2022-08-16T00:17:56.601Z,19.20
2022-08-16T00:20:21.592Z,19.10
2022-08-16T00:22:53.389Z,19.10
2022-08-16T00:26:33.290Z,19.20
2022-08-16T00:28:15.457Z,19.20
2022-08-16T00:30:44.862Z,19.20
2022-08-16T00:33:13.430Z,19.20
2022-08-16T00:35:41.965Z,19.20
2022-08-16T00:38:41.282Z,19.30
2022-08-16T00:41:02.083Z,19.30
2022-08-16T00:43:42.549Z,19.30
2022-08-16T00:46:33.102Z,19.30
2022-08-16T00:49:05.652Z,19.30
2022-08-16T00:51:35.488Z,19.40
2022-08-16T00:54:08.043Z,19.40
2022-08-16T00:56:58.538Z,19.50
2022-08-16T00:59:33.117Z,19.40
2022-08-16T01:02:31.270Z,19.60
2022-08-16T01:05:10.302Z,19.50
2022-08-16T01:07:50.630Z,19.40
2022-08-16T01:10:20.359Z,19.50
2022-08-16T01:12:49.190Z,19.70
2022-08-16T01:15:20.308Z,19.70
2022-08-16T01:17:56.189Z,19.70
2022-08-16T01:20:30.428Z,19.80
2022-08-16T01:23:08.500Z,19.80
2022-08-16T01:25:42.096Z,19.80
2022-08-16T01:28:19.645Z,19.90
2022-08-16T01:30:55.411Z,20.10
2022-08-16T01:33:25.516Z,20.10
2022-08-16T01:36:12.077Z,20.10
2022-08-16T01:38:48.842Z,20.10
2022-08-16T01:41:25.370Z,20.20
2022-08-16T01:43:56.452Z,20.20
2022-08-16T01:46:39.195Z,20.20
2022-08-16T01:49:43.630Z,20.20
2022-08-16T01:52:29.231Z,20.20
2022-08-16T01:55:26.169Z,20.30
2022-08-16T01:58:07.364Z,20.40
2022-08-16T02:00:41.178Z,20.30
2022-08-16T02:03:12.601Z,20.20
2022-08-16T02:05:42.964Z,20.10
2022-08-16T02:08:33.420Z,20.10
2022-08-16T02:11:06.250Z,20.00
2022-08-16T02:13:41.902Z,20.00
2022-08-16T02:16:18.373Z,20.00
2022-08-16T02:18:49.299Z,20.10
2022-08-16T02:21:31.248Z,20.20
2022-08-16T02:24:00.702Z,20.30
2022-08-16T02:26:29.684Z,20.40
2022-08-16T02:29:04.874Z,20.40
2022-08-16T02:32:03.282Z,20.50
2022-08-16T02:34:34.691Z,20.50
2022-08-16T02:37:11.030Z,20.60
2022-08-16T02:39:41.476Z,20.50
2022-08-16T02:42:10.501Z,20.40
2022-08-16T02:44:43.206Z,20.30
2022-08-16T02:47:12.610Z,20.20
2022-08-16T02:49:59.250Z,20.00
2022-08-16T02:52:43.904Z,19.80
2022-08-16T02:55:15.619Z,19.60
2022-08-16T02:57:54.400Z,19.40
2022-08-16T03:00:33.800Z,19.40
2022-08-16T03:03:05.306Z,19.40
2022-08-16T03:05:39.562Z,19.40
2022-08-16T03:08:52.677Z,19.20
2022-08-16T03:11:00.946Z,19.10
2022-08-16T03:13:30.508Z,19.00
2022-08-16T03:16:32.880Z,18.90
2022-08-16T03:19:01.786Z,18.80
2022-08-16T03:21:37.723Z,18.70
2022-08-16T03:24:28.921Z,18.60
2022-08-16T03:27:02.950Z,18.50
2022-08-16T03:29:34.709Z,18.50
2022-08-16T03:32:07.510Z,18.40
2022-08-16T03:34:36.585Z,18.40
2022-08-16T03:37:06.081Z,18.40
2022-08-16T03:39:42.830Z,18.30
2022-08-16T03:42:12.170Z,18.20
2022-08-16T03:44:49.786Z,18.20
2022-08-16T03:47:22.840Z,18.00
2022-08-16T03:49:53.588Z,18.00
2022-08-16T03:52:31.491Z,18.10
2022-08-16T03:55:02.419Z,18.00
2022-08-16T03:57:35.734Z,17.90
2022-08-16T04:00:35.509Z,17.80
2022-08-16T04:03:18.733Z,17.80
2022-08-16T04:05:51.253Z,17.90
2022-08-16T04:08:24.703Z,17.90
2022-08-16T04:11:00.302Z,17.80
2022-08-16T04:14:00.655Z,17.80
2022-08-16T04:16:27.263Z,17.70
2022-08-16T04:19:04.701Z,17.70
2022-08-16T04:21:47.310Z,17.70
2022-08-16T04:24:18.282Z,17.70
2022-08-16T04:26:48.353Z,17.70
2022-08-16T04:29:24.450Z,17.70
2022-08-16T04:31:58.036Z,17.70
2022-08-16T04:34:37.190Z,17.70
2022-08-16T04:37:07.519Z,17.80
2022-08-16T04:39:47.242Z,17.70
2022-08-16T04:42:29.578Z,17.60
2022-08-16T04:45:01.952Z,17.60
2022-08-16T04:47:36.134Z,17.70
2022-08-16T04:50:16.323Z,17.60
2022-08-16T04:53:05.882Z,17.60
2022-08-16T04:55:38.850Z,17.70
2022-08-16T04:58:43.611Z,17.70
2022-08-16T05:01:00.307Z,17.80
2022-08-16T05:03:30.065Z,17.80
2022-08-16T05:06:04.903Z,17.80
2022-08-16T05:08:34.858Z,17.80
2022-08-16T05:11:19.932Z,17.80
2022-08-16T05:13:50.889Z,17.80
2022-08-16T05:16:30.026Z,17.80
2022-08-16T05:19:11.562Z,17.80
2022-08-16T05:21:52.055Z,17.80
2022-08-16T05:24:24.524Z,18.00
2022-08-16T05:26:54.558Z,18.30
2022-08-16T05:29:59.944Z,18.40
2022-08-16T05:32:32.722Z,18.50
2022-08-16T05:35:11.057Z,18.60
2022-08-16T05:37:46.980Z,18.80
2022-08-16T05:40:19.111Z,18.80
2022-08-16T05:42:51.358Z,19.00
2022-08-16T05:45:24.343Z,19.20
2022-08-16T05:47:59.598Z,19.30
2022-08-16T05:50:37.487Z,19.40
2022-08-16T05:53:12.106Z,19.60
2022-08-16T05:55:54.875Z,19.70
2022-08-16T05:58:33.094Z,19.80
2022-08-16T06:01:03.848Z,19.90
2022-08-16T06:03:37.550Z,20.10
2022-08-16T06:06:13.877Z,20.20
2022-08-16T06:08:58.456Z,20.30
2022-08-16T06:11:27.591Z,20.40
2022-08-16T06:14:01.436Z,20.50
2022-08-16T06:16:37.882Z,20.70
2022-08-16T06:19:07.252Z,20.80
2022-08-16T06:21:45.353Z,20.90
2022-08-16T06:24:54.476Z,21.00
2022-08-16T06:27:04.725Z,21.10
2022-08-16T06:29:35.143Z,21.20
2022-08-16T06:32:05.422Z,21.40
2022-08-16T06:34:55.555Z,21.50
2022-08-16T06:37:27.484Z,21.60
2022-08-16T06:40:16.155Z,21.80
2022-08-16T06:42:57.354Z,21.90
2022-08-16T06:45:38.225Z,22.10
2022-08-16T06:48:33.223Z,22.10
2022-08-16T06:51:06.275Z,22.30
2022-08-16T06:53:36.886Z,22.30
2022-08-16T06:56:14.022Z,22.30
2022-08-16T06:58:58.147Z,22.30
2022-08-16T07:01:43.404Z,22.30
2022-08-16T07:04:32.445Z,22.40
2022-08-16T07:07:17.392Z,22.50
2022-08-16T07:09:49.805Z,22.60
2022-08-16T07:12:22.170Z,22.70
2022-08-16T07:15:08.457Z,22.80
2022-08-16T07:17:46.249Z,22.80
2022-08-16T07:20:35.517Z,22.90
2022-08-16T07:23:14.219Z,23.00
2022-08-16T07:25:50.891Z,23.10
2022-08-16T07:28:24.382Z,23.10
2022-08-16T07:30:56.003Z,23.10
2022-08-16T07:33:51.948Z,23.20
2022-08-16T07:36:26.507Z,23.30
2022-08-16T07:38:58.100Z,23.30
2022-08-16T07:41:29.661Z,23.50
2022-08-16T07:44:15.596Z,23.60
2022-08-16T07:46:46.437Z,23.70
2022-08-16T07:49:23.900Z,23.70
2022-08-16T07:51:55.973Z,23.80
2022-08-16T07:54:37.805Z,23.90
2022-08-16T07:57:12.479Z,24.00
2022-08-16T07:59:46.117Z,24.10
2022-08-16T08:02:20.026Z,24.20
2022-08-16T08:04:54.717Z,24.20
2022-08-16T08:07:27.584Z,24.30
2022-08-16T08:09:59.438Z,24.40
2022-08-16T08:12:32.694Z,24.40
2022-08-16T08:15:11.955Z,24.50
2022-08-16T08:17:44.042Z,24.60
2022-08-16T08:20:28.467Z,24.60
2022-08-16T08:23:01.670Z,24.70
2022-08-16T08:25:54.082Z,24.60
2022-08-16T08:28:27.240Z,24.70
2022-08-16T08:31:09.673Z,24.70
2022-08-16T08:33:47.556Z,24.80
2022-08-16T08:36:33.047Z,24.90
2022-08-16T08:39:16.344Z,25.20
2022-08-16T08:41:52.855Z,25.60
2022-08-16T08:44:29.174Z,25.70
2022-08-16T08:47:12.106Z,25.70
2022-08-16T08:49:46.514Z,25.80
2022-08-16T08:52:34.335Z,25.70
2022-08-16T08:55:10.349Z,25.60
2022-08-16T08:57:41.184Z,25.60
2022-08-16T09:00:51.338Z,25.70
2022-08-16T09:03:23.550Z,25.90
2022-08-16T09:05:59.179Z,25.70
2022-08-16T09:08:31.874Z,25.80
2022-08-16T09:11:08.430Z,25.80
2022-08-16T09:13:47.219Z,26.00
2022-08-16T09:17:03.675Z,26.10
2022-08-16T09:19:10.288Z,26.20
2022-08-16T09:21:39.188Z,26.20
2022-08-16T09:24:09.847Z,26.30
2022-08-16T09:26:45.698Z,26.40
2022-08-16T09:29:24.191Z,26.60
2022-08-16T09:32:04.726Z,26.80
2022-08-16T09:39:42.092Z,27.30
2022-08-16T09:58:10.622Z,30.30
2022-08-16T10:20:54.679Z,31.60
2022-08-16T10:43:26.170Z,32.70
2022-08-16T10:46:01.254Z,33.20
2022-08-16T10:49:31.546Z,32.70
2022-08-16T10:52:18.102Z,32.70
2022-08-16T10:54:59.778Z,33.30
2022-08-16T10:57:41.248Z,34.40
2022-08-16T11:00:20.862Z,34.40
2022-08-16T11:02:57.956Z,34.60
2022-08-16T11:08:35.677Z,34.60
2022-08-16T11:11:11.824Z,34.90
2022-08-16T11:14:06.123Z,34.90
2022-08-16T11:19:25.936Z,35.90
2022-08-16T11:22:38.511Z,35.90
2022-08-16T11:24:46.081Z,35.70
2022-08-16T11:27:35.846Z,35.90
2022-08-16T11:30:09.158Z,35.60
2022-08-16T11:32:44.439Z,35.00
2022-08-16T11:35:17.224Z,35.60
2022-08-16T11:40:44.103Z,35.70
2022-08-16T11:43:16.971Z,36.00
2022-08-16T11:45:53.541Z,36.50
2022-08-16T11:48:25.080Z,37.10
2022-08-16T11:50:54.946Z,37.40
2022-08-16T11:53:24.588Z,37.40
2022-08-16T11:55:57.054Z,37.50
2022-08-16T11:58:28.344Z,37.00
2022-08-16T12:00:59.435Z,37.40
2022-08-16T12:03:35.158Z,37.70
2022-08-16T12:06:10.633Z,37.40
2022-08-16T12:08:39.626Z,37.50
2022-08-16T12:11:12.215Z,38.10
2022-08-16T12:13:44.403Z,38.30
2022-08-16T12:16:22.890Z,37.70
2022-08-16T12:19:13.678Z,37.00
2022-08-16T12:21:58.487Z,38.10
2022-08-16T12:24:30.053Z,37.70
2022-08-16T12:27:11.217Z,38.20
2022-08-16T12:29:43.883Z,38.70
2022-08-16T12:32:38.421Z,39.00
2022-08-16T12:35:09.080Z,38.80
2022-08-16T12:37:41.484Z,39.10
2022-08-16T12:40:38.735Z,38.30
2022-08-16T12:43:15.076Z,36.60
2022-08-16T12:45:47.328Z,35.50
2022-08-16T12:48:39.130Z,34.10
2022-08-16T12:51:22.183Z,34.10
2022-08-16T12:53:56.710Z,33.20
2022-08-16T12:56:28.241Z,32.60
2022-08-16T12:58:59.525Z,32.40
2022-08-16T13:01:30.711Z,32.40
2022-08-16T13:04:19.654Z,32.50
2022-08-16T13:06:52.865Z,32.90
2022-08-16T13:09:26.204Z,33.00
2022-08-16T13:12:03.642Z,32.90
2022-08-16T13:14:39.261Z,32.90
2022-08-16T13:17:18.560Z,34.00
2022-08-16T13:20:08.030Z,35.40
2022-08-16T13:25:12.280Z,33.90
2022-08-16T13:28:02.096Z,34.00
2022-08-16T13:30:41.911Z,35.00
2022-08-16T13:33:15.784Z,36.80
2022-08-16T13:35:55.730Z,37.90
2022-08-16T13:38:39.884Z,38.80
2022-08-16T13:41:15.819Z,39.80
2022-08-16T13:43:45.613Z,39.10
2022-08-16T13:46:32.374Z,38.00
2022-08-16T13:49:01.539Z,36.50
2022-08-16T13:51:31.954Z,35.10
2022-08-16T13:54:04.718Z,34.40
2022-08-16T13:56:40.432Z,35.30
2022-08-16T13:59:21.153Z,36.00
2022-08-16T14:01:55.624Z,37.10
2022-08-16T14:04:31.515Z,37.60
2022-08-16T14:07:03.802Z,37.70
2022-08-16T14:09:43.507Z,38.20
2022-08-16T14:12:20.838Z,38.90
2022-08-16T14:14:54.534Z,38.70
2022-08-16T14:17:26.618Z,37.60
2022-08-16T14:19:59.613Z,37.00
2022-08-16T14:22:35.888Z,35.70
2022-08-16T14:25:16.443Z,34.50
2022-08-16T14:27:45.697Z,34.40
2022-08-16T14:43:07.130Z,39.70
2022-08-16T14:45:50.873Z,40.10
2022-08-16T14:49:17.673Z,39.10
2022-08-16T14:52:56.201Z,38.70
2022-08-16T14:55:08.756Z,37.40
2022-08-16T14:59:01.027Z,36.30
2022-08-16T15:02:09.665Z,35.20
2022-08-16T15:04:47.911Z,34.50
2022-08-16T15:08:36.295Z,34.80
2022-08-16T15:10:51.733Z,35.00
2022-08-16T15:13:55.929Z,35.10
2022-08-16T15:16:31.182Z,35.60
2022-08-16T15:19:29.266Z,36.50
2022-08-16T15:22:19.990Z,37.00
2022-08-16T15:25:41.279Z,37.50
2022-08-16T15:31:32.295Z,38.50
2022-08-16T15:34:13.177Z,39.00
2022-08-16T15:36:50.928Z,39.30
2022-08-16T15:39:27.888Z,38.30
2022-08-16T15:42:11.072Z,37.90
2022-08-16T15:44:51.980Z,37.10
2022-08-16T15:47:26.315Z,36.60
2022-08-16T15:49:58.046Z,35.90
2022-08-16T15:52:32.489Z,35.50
2022-08-16T15:55:23.706Z,35.00
2022-08-16T15:58:01.020Z,34.70
2022-08-16T16:01:01.888Z,34.60
2022-08-16T16:03:39.386Z,34.40
2022-08-16T16:06:08.641Z,34.40
2022-08-16T16:08:39.013Z,34.10
2022-08-16T16:11:12.235Z,33.80
2022-08-16T16:13:43.377Z,33.40
2022-08-16T16:16:19.414Z,33.10
2022-08-16T16:18:52.564Z,32.90
2022-08-16T16:21:25.970Z,32.90
2022-08-16T16:24:03.252Z,33.00
2022-08-16T16:26:51.416Z,33.00
2022-08-16T16:29:20.803Z,32.90
2022-08-16T16:31:59.574Z,33.20
2022-08-16T16:34:32.406Z,33.70
2022-08-16T16:37:04.900Z,34.30
2022-08-16T16:39:43.069Z,34.80
2022-08-16T16:42:29.720Z,34.80
2022-08-16T16:45:03.127Z,35.20
2022-08-16T16:47:41.853Z,35.40
2022-08-16T16:50:18.891Z,35.90
2022-08-16T16:52:59.494Z,37.00
2022-08-16T16:55:39.077Z,38.50
2022-08-16T16:58:40.479Z,39.40
2022-08-16T17:01:35.204Z,39.70
2022-08-16T17:04:37.382Z,40.00
2022-08-16T17:07:30.012Z,39.70
2022-08-16T17:10:08.406Z,39.70
2022-08-16T17:12:56.668Z,40.10
2022-08-16T17:15:50.148Z,40.40
2022-08-16T17:19:15.561Z,39.70
2022-08-16T17:21:24.291Z,39.40
2022-08-16T17:24:01.956Z,39.00
2022-08-16T17:27:05.104Z,38.30
2022-08-16T17:30:15.569Z,36.30
2022-08-16T17:36:36.322Z,34.30
2022-08-16T17:39:13.703Z,33.70
2022-08-16T17:42:17.772Z,33.00
2022-08-16T17:45:02.446Z,32.70
2022-08-16T17:49:22.741Z,32.50
2022-08-16T17:50:45.230Z,32.20
2022-08-16T17:54:20.279Z,31.80
2022-08-16T17:57:30.428Z,31.60
2022-08-16T18:00:20.614Z,31.40
2022-08-16T18:02:51.991Z,31.30
2022-08-16T18:16:29.181Z,29.70
2022-08-16T18:29:06.622Z,29.00
2022-08-16T18:35:16.642Z,28.70
2022-08-16T18:38:30.303Z,28.50
2022-08-16T18:42:21.155Z,28.40
2022-08-16T18:45:00.009Z,28.20
2022-08-16T18:47:57.132Z,28.00
2022-08-16T19:10:19.524Z,27.10
2022-08-16T19:24:44.774Z,26.10
2022-08-16T19:28:50.044Z,26.00
2022-08-16T19:31:43.930Z,25.80
2022-08-16T19:34:43.248Z,25.70
2022-08-16T19:38:07.202Z,25.50
2022-08-16T19:40:59.412Z,25.40
2022-08-16T19:43:51.670Z,25.10
2022-08-16T19:47:19.006Z,24.70
2022-08-16T19:50:40.933Z,24.50
2022-08-16T19:53:39.309Z,24.40
2022-08-16T19:57:33.281Z,24.30
2022-08-16T20:05:20.376Z,23.80
2022-08-16T20:08:04.703Z,23.60
2022-08-16T20:10:52.478Z,23.50
2022-08-16T20:14:05.646Z,23.50
2022-08-16T20:17:41.373Z,23.60
2022-08-16T20:23:42.785Z,23.70
2022-08-16T20:27:00.285Z,23.70
2022-08-16T20:29:58.848Z,23.80
2022-08-16T20:32:52.717Z,23.70
2022-08-16T20:35:31.385Z,23.50
2022-08-16T20:38:07.491Z,23.60
2022-08-16T20:41:41.327Z,23.70
2022-08-16T20:44:59.971Z,23.80
2022-08-16T20:47:45.630Z,23.70
2022-08-16T20:50:23.751Z,23.80
2022-08-16T20:53:33.676Z,23.70
2022-08-16T20:56:03.809Z,23.60
2022-08-16T20:58:34.487Z,23.60
2022-08-16T21:01:04.909Z,23.60
2022-08-16T21:03:34.820Z,23.60
2022-08-16T21:06:04.536Z,23.60
2022-08-16T21:08:51.811Z,23.60
2022-08-16T21:11:23.876Z,24.00
2022-08-16T21:14:00.584Z,24.10
2022-08-16T21:16:30.228Z,24.10
2022-08-16T21:19:02.376Z,24.10
2022-08-16T21:21:33.634Z,24.00
2022-08-16T21:24:04.734Z,23.90
2022-08-16T21:26:39.001Z,23.80
2022-08-16T21:29:11.259Z,23.90
2022-08-16T21:31:46.185Z,23.90
2022-08-16T21:34:19.028Z,23.90
2022-08-16T21:36:49.232Z,23.90
2022-08-16T21:39:21.495Z,23.80
2022-08-16T21:41:50.432Z,23.80
2022-08-16T21:44:19.400Z,23.80
2022-08-16T21:46:48.875Z,23.70
2022-08-16T21:49:18.342Z,23.60
2022-08-16T21:51:48.225Z,23.60
2022-08-16T21:54:23.954Z,23.50
2022-08-16T21:56:53.258Z,23.50
2022-08-16T21:59:24.952Z,23.50
2022-08-16T22:01:54.634Z,23.70
2022-08-16T22:04:37.229Z,24.00
2022-08-16T22:07:09.554Z,24.00
2022-08-16T22:09:43.330Z,23.80
2022-08-16T22:12:21.474Z,23.60
2022-08-16T22:14:52.933Z,23.70
2022-08-16T22:17:21.998Z,23.60
2022-08-16T22:19:52.281Z,23.40
2022-08-16T22:22:21.343Z,23.20
2022-08-16T22:24:51.770Z,23.10
2022-08-16T22:27:20.436Z,23.10
2022-08-16T22:29:49.107Z,23.00
2022-08-16T22:32:17.997Z,23.00
2022-08-16T22:34:46.952Z,22.90
2022-08-16T22:37:16.077Z,22.80
2022-08-16T22:39:45.084Z,22.90
2022-08-16T22:42:15.463Z,23.10
2022-08-16T22:44:46.254Z,23.10
2022-08-16T22:47:15.519Z,22.90
2022-08-16T22:49:44.242Z,22.80
2022-08-16T22:52:12.956Z,22.80
2022-08-16T22:55:03.160Z,22.70
2022-08-16T22:57:33.230Z,22.60
2022-08-16T23:00:02.159Z,22.70
2022-08-16T23:02:31.221Z,22.60
2022-08-16T23:05:00.523Z,22.40
2022-08-16T23:07:29.334Z,22.20
2022-08-16T23:09:58.493Z,22.10
2022-08-16T23:12:29.763Z,22.00
2022-08-16T23:15:04.394Z,22.10
2022-08-16T23:17:34.157Z,21.90
2022-08-16T23:20:03.306Z,21.90
2022-08-16T23:23:21.184Z,21.70
2022-08-16T23:25:35.585Z,21.60
2022-08-16T23:28:04.951Z,21.50
2022-08-16T23:30:40.586Z,21.40
2022-08-16T23:33:12.851Z,21.30
2022-08-16T23:35:45.757Z,21.30
2022-08-16T23:38:37.571Z,21.30
2022-08-16T23:41:05.613Z,21.40
2022-08-16T23:43:41.992Z,21.40
2022-08-16T23:46:15.222Z,21.50
2022-08-16T23:49:56.551Z,21.60
2022-08-16T23:51:33.761Z,21.70
2022-08-16T23:54:02.727Z,21.90
2022-08-16T23:56:40.165Z,21.90
2022-08-16T23:59:09.461Z,22.00
